sensor_id;sensor_type;location;lat;lon;timestamp;pressure;altitude;pressure_sealevel;temperature;humidity
65546;BME280;52177;55.968;37.498;2023-02-12T00:00:29;98293.97;;;-1.27;79.79
65546;BME280;52177;55.968;37.498;2023-02-12T00:01:00;98309.41;;;-1.33;79.41
65546;BME280;52177;55.968;37.498;2023-02-12T00:01:31;98321.63;;;-1.34;79.60
65546;BME280;52177;55.968;37.498;2023-02-12T00:02:01;98286.00;;;-1.35;79.73
65546;BME280;52177;55.968;37.498;2023-02-12T00:02:32;98314.47;;;-1.32;79.42
65546;BME280;52177;55.968;37.498;2023-02-12T00:03:02;98326.72;;;-1.32;79.54
65546;BME280;52177;55.968;37.498;2023-02-12T00:03:34;98316.53;;;-1.35;79.60
65546;BME280;52177;55.968;37.498;2023-02-12T00:04:04;98315.56;;;-1.34;79.61
65546;BME280;52177;55.968;37.498;2023-02-12T00:04:35;98317.63;;;-1.38;79.65
65546;BME280;52177;55.968;37.498;2023-02-12T00:05:05;98327.81;;;-1.35;79.44
65546;BME280;52177;55.968;37.498;2023-02-12T00:05:37;98331.53;;;-1.37;79.33
65546;BME280;52177;55.968;37.498;2023-02-12T00:06:09;98324.50;;;-1.37;79.48
65546;BME280;52177;55.968;37.498;2023-02-12T00:06:39;98323.69;;;-1.37;79.49
65546;BME280;52177;55.968;37.498;2023-02-12T00:07:10;98322.47;;;-1.33;79.24
65546;BME280;52177;55.968;37.498;2023-02-12T00:07:40;98317.63;;;-1.38;78.89
65546;BME280;52177;55.968;37.498;2023-02-12T00:08:10;98324.22;;;-1.43;78.93
65546;BME280;52177;55.968;37.498;2023-02-12T00:08:41;98322.16;;;-1.40;79.13
65546;BME280;52177;55.968;37.498;2023-02-12T00:09:11;98334.41;;;-1.40;79.13
65546;BME280;52177;55.968;37.498;2023-02-12T00:09:42;98317.63;;;-1.38;79.17
65546;BME280;52177;55.968;37.498;2023-02-12T00:10:13;98341.16;;;-1.38;78.83
65546;BME280;52177;55.968;37.498;2023-02-12T00:10:44;98333.31;;;-1.47;78.68
65546;BME280;52177;55.968;37.498;2023-02-12T00:11:19;98336.03;;;-1.49;78.68
65546;BME280;52177;55.968;37.498;2023-02-12T00:11:51;98337.97;;;-1.51;78.64
65546;BME280;52177;55.968;37.498;2023-02-12T00:12:21;98345.09;;;-1.53;78.87
65546;BME280;52177;55.968;37.498;2023-02-12T00:12:54;98341.53;;;-1.52;78.88
65546;BME280;52177;55.968;37.498;2023-02-12T00:13:25;98333.31;;;-1.47;78.76
65546;BME280;52177;55.968;37.498;2023-02-12T00:13:56;98350.91;;;-1.50;78.51
65546;BME280;52177;55.968;37.498;2023-02-12T00:14:27;98341.66;;;-1.54;78.49
65546;BME280;52177;55.968;37.498;2023-02-12T00:14:57;98342.88;;;-1.58;78.72
65546;BME280;52177;55.968;37.498;2023-02-12T00:15:27;98357.16;;;-1.62;78.72
65546;BME280;52177;55.968;37.498;2023-02-12T00:15:58;98356.63;;;-1.65;78.92
65546;BME280;52177;55.968;37.498;2023-02-12T00:16:28;98349.06;;;-1.68;78.93
65546;BME280;52177;55.968;37.498;2023-02-12T00:16:59;98349.06;;;-1.68;79.09
65546;BME280;52177;55.968;37.498;2023-02-12T00:17:30;98358.81;;;-1.71;79.00
65546;BME280;52177;55.968;37.498;2023-02-12T00:18:00;98350.69;;;-1.67;79.12
65546;BME280;52177;55.968;37.498;2023-02-12T00:18:31;98354.94;;;-1.66;78.89
65546;BME280;52177;55.968;37.498;2023-02-12T00:19:01;98356.91;;;-1.68;78.79
65546;BME280;52177;55.968;37.498;2023-02-12T00:19:32;98356.19;;;-1.71;78.82
65546;BME280;52177;55.968;37.498;2023-02-12T00:20:03;98347.13;;;-1.66;78.86
65546;BME280;52177;55.968;37.498;2023-02-12T00:20:33;98362.13;;;-1.68;78.66
65546;BME280;52177;55.968;37.498;2023-02-12T00:21:04;98362.50;;;-1.73;78.42
65546;BME280;52177;55.968;37.498;2023-02-12T00:21:35;98368.56;;;-1.73;78.50
65546;BME280;52177;55.968;37.498;2023-02-12T00:22:05;98362.75;;;-1.76;78.39
65546;BME280;52177;55.968;37.498;2023-02-12T00:22:36;98375.00;;;-1.77;78.52
65546;BME280;52177;55.968;37.498;2023-02-12T00:23:06;98365.13;;;-1.73;78.58
65546;BME280;52177;55.968;37.498;2023-02-12T00:24:55;98369.78;;;-1.77;77.99
65546;BME280;52177;55.968;37.498;2023-02-12T00:25:25;98369.78;;;-1.77;77.82
65546;BME280;52177;55.968;37.498;2023-02-12T00:25:56;98367.88;;;-1.75;77.80
65546;BME280;52177;55.968;37.498;2023-02-12T00:26:26;98373.63;;;-1.71;77.74
65546;BME280;52177;55.968;37.498;2023-02-12T00:26:56;98369.38;;;-1.72;77.53
65546;BME280;52177;55.968;37.498;2023-02-12T00:27:27;98378.59;;;-1.78;77.29
65546;BME280;52177;55.968;37.498;2023-02-12T00:27:57;98381.44;;;-1.81;77.41
65546;BME280;52177;55.968;37.498;2023-02-12T00:28:28;98365.91;;;-1.82;77.55
65546;BME280;52177;55.968;37.498;2023-02-12T00:28:58;98383.09;;;-1.80;77.05
65546;BME280;52177;55.968;37.498;2023-02-12T00:29:28;98385.56;;;-1.78;77.40
65546;BME280;52177;55.968;37.498;2023-02-12T00:29:59;98386.53;;;-1.79;77.36
65546;BME280;52177;55.968;37.498;2023-02-12T00:30:29;98384.03;;;-1.81;77.47
65546;BME280;52177;55.968;37.498;2023-02-12T00:31:21;98387.31;;;-1.88;77.68
65546;BME280;52177;55.968;37.498;2023-02-12T00:31:51;98392.28;;;-1.85;77.90
65546;BME280;52177;55.968;37.498;2023-02-12T00:32:22;98375.38;;;-1.81;77.65
65546;BME280;52177;55.968;37.498;2023-02-12T00:32:52;98371.25;;;-1.84;77.40
65546;BME280;52177;55.968;37.498;2023-02-12T00:33:22;98389.41;;;-1.82;77.25
65546;BME280;52177;55.968;37.498;2023-02-12T00:33:53;98395.97;;;-1.88;77.45
65546;BME280;52177;55.968;37.498;2023-02-12T00:34:24;98413.13;;;-1.95;77.77
65546;BME280;52177;55.968;37.498;2023-02-12T00:34:54;98397.44;;;-1.95;78.00
65546;BME280;52177;55.968;37.498;2023-02-12T00:35:24;98402.81;;;-1.97;78.02
65546;BME280;52177;55.968;37.498;2023-02-12T00:35:57;98404.84;;;-2.00;78.30
65546;BME280;52177;55.968;37.498;2023-02-12T00:36:29;98399.03;;;-2.04;78.10
65546;BME280;52177;55.968;37.498;2023-02-12T00:37:00;98404.22;;;-2.14;78.39
65546;BME280;52177;55.968;37.498;2023-02-12T00:37:30;98408.34;;;-2.11;78.44
65546;BME280;52177;55.968;37.498;2023-02-12T00:38:00;98417.16;;;-2.12;78.60
65546;BME280;52177;55.968;37.498;2023-02-12T00:38:31;98428.69;;;-2.15;78.63
65546;BME280;52177;55.968;37.498;2023-02-12T00:39:02;98423.47;;;-2.15;78.91
65546;BME280;52177;55.968;37.498;2023-02-12T00:39:32;98421.13;;;-2.18;78.80
65546;BME280;52177;55.968;37.498;2023-02-12T00:40:07;98424.66;;;-2.19;79.02
65546;BME280;52177;55.968;37.498;2023-02-12T00:40:37;98431.78;;;-2.21;79.20
65546;BME280;52177;55.968;37.498;2023-02-12T00:41:08;98430.84;;;-2.20;79.42
65546;BME280;52177;55.968;37.498;2023-02-12T00:41:38;98428.78;;;-2.16;79.40
65546;BME280;52177;55.968;37.498;2023-02-12T00:42:09;98444.59;;;-2.18;79.46
65546;BME280;52177;55.968;37.498;2023-02-12T00:42:39;98439.75;;;-2.22;79.51
65546;BME280;52177;55.968;37.498;2023-02-12T00:43:10;98434.66;;;-2.24;79.72
65546;BME280;52177;55.968;37.498;2023-02-12T00:43:40;98422.88;;;-2.18;79.65
65546;BME280;52177;55.968;37.498;2023-02-12T00:44:11;98431.56;;;-2.18;79.31
65546;BME280;52177;55.968;37.498;2023-02-12T00:44:41;98431.16;;;-2.13;78.91
65546;BME280;52177;55.968;37.498;2023-02-12T00:45:12;98441.63;;;-2.13;78.78
65546;BME280;52177;55.968;37.498;2023-02-12T00:45:44;98443.53;;;-2.15;78.80
65546;BME280;52177;55.968;37.498;2023-02-12T00:46:15;98450.31;;;-2.24;78.74
65546;BME280;52177;55.968;37.498;2023-02-12T00:46:45;98448.19;;;-2.30;78.92
65546;BME280;52177;55.968;37.498;2023-02-12T00:47:16;98445.38;;;-2.27;79.30
65546;BME280;52177;55.968;37.498;2023-02-12T00:47:46;98445.47;;;-2.28;79.01
65546;BME280;52177;55.968;37.498;2023-02-12T00:48:17;98447.25;;;-2.29;79.03
65546;BME280;52177;55.968;37.498;2023-02-12T00:48:47;98458.09;;;-2.34;78.88
65546;BME280;52177;55.968;37.498;2023-02-12T00:49:18;98453.81;;;-2.35;79.01
65546;BME280;52177;55.968;37.498;2023-02-12T00:49:49;98450.25;;;-2.34;79.15
65546;BME280;52177;55.968;37.498;2023-02-12T00:50:19;98450.69;;;-2.28;78.96
65546;BME280;52177;55.968;37.498;2023-02-12T00:50:50;98465.91;;;-2.34;78.63
65546;BME280;52177;55.968;37.498;2023-02-12T00:51:21;98459.88;;;-2.34;78.83
65546;BME280;52177;55.968;37.498;2023-02-12T00:51:51;98460.69;;;-2.34;79.03
65546;BME280;52177;55.968;37.498;2023-02-12T00:52:21;98459.72;;;-2.33;79.04
65546;BME280;52177;55.968;37.498;2023-02-12T00:52:52;98462.22;;;-2.31;79.08
65546;BME280;52177;55.968;37.498;2023-02-12T00:53:22;98447.50;;;-2.32;78.87
65546;BME280;52177;55.968;37.498;2023-02-12T00:53:53;98461.78;;;-2.36;78.94
65546;BME280;52177;55.968;37.498;2023-02-12T00:54:23;98465.75;;;-2.32;79.02
65546;BME280;52177;55.968;37.498;2023-02-12T00:54:53;98465.91;;;-2.34;78.76
65546;BME280;52177;55.968;37.498;2023-02-12T00:55:24;98473.03;;;-2.36;78.83
65546;BME280;52177;55.968;37.498;2023-02-12T00:55:54;98476.56;;;-2.37;78.81
65546;BME280;52177;55.968;37.498;2023-02-12T00:56:25;98477.44;;;-2.36;78.89
65546;BME280;52177;55.968;37.498;2023-02-12T00:56:56;98473.16;;;-2.37;78.97
65546;BME280;52177;55.968;37.498;2023-02-12T00:57:26;98482.66;;;-2.36;78.96
65546;BME280;52177;55.968;37.498;2023-02-12T00:57:57;98483.84;;;-2.40;78.88
65546;BME280;52177;55.968;37.498;2023-02-12T00:58:27;98487.28;;;-2.40;78.98
65546;BME280;52177;55.968;37.498;2023-02-12T00:58:57;98482.66;;;-2.36;79.02
65546;BME280;52177;55.968;37.498;2023-02-12T00:59:28;98471.00;;;-2.32;78.77
65546;BME280;52177;55.968;37.498;2023-02-12T00:59:59;98482.84;;;-2.28;78.63
65546;BME280;52177;55.968;37.498;2023-02-12T01:00:29;98490.66;;;-2.28;78.20
65546;BME280;52177;55.968;37.498;2023-02-12T01:01:00;98483.44;;;-2.24;78.23
65546;BME280;52177;55.968;37.498;2023-02-12T01:01:30;98489.72;;;-2.27;78.12
65546;BME280;52177;55.968;37.498;2023-02-12T01:02:01;98480.69;;;-2.23;77.98
65546;BME280;52177;55.968;37.498;2023-02-12T01:02:31;98480.81;;;-2.24;77.99
65546;BME280;52177;55.968;37.498;2023-02-12T01:03:02;98496.16;;;-2.31;77.87
65546;BME280;52177;55.968;37.498;2023-02-12T01:03:33;98505.50;;;-2.28;78.02
65546;BME280;52177;55.968;37.498;2023-02-12T01:04:03;98495.06;;;-2.28;77.98
65546;BME280;52177;55.968;37.498;2023-02-12T01:04:34;98495.06;;;-2.28;77.99
65546;BME280;52177;55.968;37.498;2023-02-12T01:05:05;98499.91;;;-2.24;77.91
65546;BME280;52177;55.968;37.498;2023-02-12T01:05:35;98507.41;;;-2.30;77.99
65546;BME280;52177;55.968;37.498;2023-02-12T01:06:06;98502.44;;;-2.34;78.15
65546;BME280;52177;55.968;37.498;2023-02-12T01:06:37;98506.00;;;-2.35;78.28
65546;BME280;52177;55.968;37.498;2023-02-12T01:07:08;98509.84;;;-2.39;78.29
65546;BME280;52177;55.968;37.498;2023-02-12T01:07:38;98505.09;;;-2.45;78.45
65546;BME280;52177;55.968;37.498;2023-02-12T01:08:14;98512.91;;;-2.45;78.64
65546;BME280;52177;55.968;37.498;2023-02-12T01:08:44;98512.91;;;-2.45;78.86
65546;BME280;52177;55.968;37.498;2023-02-12T01:09:15;98517.31;;;-2.45;78.93
65546;BME280;52177;55.968;37.498;2023-02-12T01:09:45;98514.94;;;-2.48;78.96
65546;BME280;52177;55.968;37.498;2023-02-12T01:10:16;98517.44;;;-2.47;79.12
65546;BME280;52177;55.968;37.498;2023-02-12T01:10:54;98525.25;;;-2.47;79.05
65546;BME280;52177;55.968;37.498;2023-02-12T01:11:25;98512.56;;;-2.40;79.05
65546;BME280;52177;55.968;37.498;2023-02-12T01:11:55;98528.47;;;-2.43;78.91
65546;BME280;52177;55.968;37.498;2023-02-12T01:12:26;98528.56;;;-2.45;78.85
65546;BME280;52177;55.968;37.498;2023-02-12T01:12:56;98529.66;;;-2.47;79.02
65546;BME280;52177;55.968;37.498;2023-02-12T01:13:27;98534.16;;;-2.49;79.08
65546;BME280;52177;55.968;37.498;2023-02-12T01:13:59;98529.19;;;-2.52;79.13
65546;BME280;52177;55.968;37.498;2023-02-12T01:14:29;98534.41;;;-2.52;79.14
65546;BME280;52177;55.968;37.498;2023-02-12T01:15:00;98535.34;;;-2.53;79.19
65546;BME280;52177;55.968;37.498;2023-02-12T01:15:30;98541.53;;;-2.55;79.17
65546;BME280;52177;55.968;37.498;2023-02-12T01:16:23;98533.81;;;-2.56;79.29
65546;BME280;52177;55.968;37.498;2023-02-12T01:16:53;98535.34;;;-2.53;79.17
65546;BME280;52177;55.968;37.498;2023-02-12T01:17:23;98539.13;;;-2.46;79.18
65546;BME280;52177;55.968;37.498;2023-02-12T01:17:54;98542.81;;;-2.49;78.89
65546;BME280;52177;55.968;37.498;2023-02-12T01:18:24;98552.44;;;-2.49;78.76
65546;BME280;52177;55.968;37.498;2023-02-12T01:18:55;98547.91;;;-2.47;78.68
65546;BME280;52177;55.968;37.498;2023-02-12T01:19:26;98551.47;;;-2.48;78.75
65546;BME280;52177;55.968;37.498;2023-02-12T01:19:57;98544.72;;;-2.51;78.82
65546;BME280;52177;55.968;37.498;2023-02-12T01:20:28;98551.97;;;-2.55;78.39
65546;BME280;52177;55.968;37.498;2023-02-12T01:20:58;98534.63;;;-2.56;78.54
65546;BME280;52177;55.968;37.498;2023-02-12T01:21:30;98551.50;;;-2.60;78.33
65546;BME280;52177;55.968;37.498;2023-02-12T01:22:01;98556.47;;;-2.57;78.57
65546;BME280;52177;55.968;37.498;2023-02-12T01:22:36;98554.44;;;-2.53;78.61
65546;BME280;52177;55.968;37.498;2023-02-12T01:23:06;98556.94;;;-2.51;78.52
65546;BME280;52177;55.968;37.498;2023-02-12T01:23:37;98551.81;;;-2.53;78.31
65546;BME280;52177;55.968;37.498;2023-02-12T01:24:08;98564.19;;;-2.55;78.33
65546;BME280;52177;55.968;37.498;2023-02-12T01:24:39;98569.41;;;-2.55;78.39
65546;BME280;52177;55.968;37.498;2023-02-12T01:25:10;98556.59;;;-2.58;78.41
65546;BME280;52177;55.968;37.498;2023-02-12T01:25:40;98566.09;;;-2.57;78.53
65546;BME280;52177;55.968;37.498;2023-02-12T01:26:11;98573.66;;;-2.54;78.46
65546;BME280;52177;55.968;37.498;2023-02-12T01:26:42;98562.41;;;-2.55;78.34
65546;BME280;52177;55.968;37.498;2023-02-12T01:27:12;98564.88;;;-2.53;78.23
65546;BME280;52177;55.968;37.498;2023-02-12T01:27:43;98577.34;;;-2.57;78.08
65546;BME280;52177;55.968;37.498;2023-02-12T01:28:13;98571.41;;;-2.59;78.18
65546;BME280;52177;55.968;37.498;2023-02-12T01:28:48;98564.56;;;-2.60;78.43
65546;BME280;52177;55.968;37.498;2023-02-12T01:29:19;98577.59;;;-2.60;78.14
65546;BME280;52177;55.968;37.498;2023-02-12T01:29:49;98568.34;;;-2.64;78.36
65546;BME280;52177;55.968;37.498;2023-02-12T01:30:20;98585.78;;;-2.64;78.60
65546;BME280;52177;55.968;37.498;2023-02-12T01:30:53;98582.22;;;-2.63;78.47
65546;BME280;52177;55.968;37.498;2023-02-12T01:31:25;98582.31;;;-2.65;78.70
65546;BME280;52177;55.968;37.498;2023-02-12T01:31:56;98581.88;;;-2.70;78.65
65546;BME280;52177;55.968;37.498;2023-02-12T01:32:26;98593.97;;;-2.69;79.07
65546;BME280;52177;55.968;37.498;2023-02-12T01:32:57;98592.66;;;-2.63;78.95
65546;BME280;52177;55.968;37.498;2023-02-12T01:33:27;98591.94;;;-2.65;78.77
65546;BME280;52177;55.968;37.498;2023-02-12T01:33:59;98592.09;;;-2.67;78.67
65546;BME280;52177;55.968;37.498;2023-02-12T01:34:29;98597.28;;;-2.67;78.75
65546;BME280;52177;55.968;37.498;2023-02-12T01:35:00;98586.34;;;-2.61;78.62
65546;BME280;52177;55.968;37.498;2023-02-12T01:35:30;98591.94;;;-2.65;78.46
65546;BME280;52177;55.968;37.498;2023-02-12T01:36:01;98589.84;;;-2.71;78.42
65546;BME280;52177;55.968;37.498;2023-02-12T01:36:31;98591.38;;;-2.69;78.76
65546;BME280;52177;55.968;37.498;2023-02-12T01:37:02;98601.44;;;-2.64;78.73
65546;BME280;52177;55.968;37.498;2023-02-12T01:37:35;98598.22;;;-2.68;78.61
65546;BME280;52177;55.968;37.498;2023-02-12T01:38:06;98589.59;;;-2.68;78.61
65546;BME280;52177;55.968;37.498;2023-02-12T01:38:36;98601.19;;;-2.72;78.51
65546;BME280;52177;55.968;37.498;2023-02-12T01:39:07;98597.03;;;-2.75;78.70
65546;BME280;52177;55.968;37.498;2023-02-12T01:39:39;98604.75;;;-2.73;78.95
65546;BME280;52177;55.968;37.498;2023-02-12T01:40:13;98610.56;;;-2.70;78.84
65546;BME280;52177;55.968;37.498;2023-02-12T01:40:44;98607.03;;;-2.69;78.59
65546;BME280;52177;55.968;37.498;2023-02-12T01:41:20;98615.78;;;-2.70;78.44
65546;BME280;52177;55.968;37.498;2023-02-12T01:41:51;98606.78;;;-2.66;78.50
65546;BME280;52177;55.968;37.498;2023-02-12T01:42:21;98620.16;;;-2.70;78.38
65546;BME280;52177;55.968;37.498;2023-02-12T01:42:52;98612.34;;;-2.70;78.40
65546;BME280;52177;55.968;37.498;2023-02-12T01:43:22;98623.84;;;-2.73;78.58
65546;BME280;52177;55.968;37.498;2023-02-12T01:44:10;98606.91;;;-2.79;78.45
65546;BME280;52177;55.968;37.498;2023-02-12T01:45:49;98614.00;;;-2.81;78.67
65546;BME280;52177;55.968;37.498;2023-02-12T01:46:22;98635.47;;;-2.77;78.63
65546;BME280;52177;55.968;37.498;2023-02-12T01:47:00;98611.53;;;-2.71;78.38
65546;BME280;52177;55.968;37.498;2023-02-12T01:47:31;98621.81;;;-2.69;78.25
65546;BME280;52177;55.968;37.498;2023-02-12T01:48:02;98629.78;;;-2.71;78.20
65546;BME280;52177;55.968;37.498;2023-02-12T01:48:44;98636.16;;;-2.75;78.17
65546;BME280;52177;55.968;37.498;2023-02-12T01:49:30;98630.25;;;-2.77;78.30
65546;BME280;52177;55.968;37.498;2023-02-12T01:50:02;98641.75;;;-2.80;78.46
65546;BME280;52177;55.968;37.498;2023-02-12T01:50:33;98634.38;;;-2.74;78.31
65546;BME280;52177;55.968;37.498;2023-02-12T01:51:04;98632.75;;;-2.76;78.33
65546;BME280;52177;55.968;37.498;2023-02-12T01:51:36;98637.59;;;-2.71;78.27
65546;BME280;52177;55.968;37.498;2023-02-12T01:52:19;98648.50;;;-2.66;77.99
65546;BME280;52177;55.968;37.498;2023-02-12T01:52:53;98641.75;;;-2.68;77.92
65546;BME280;52177;55.968;37.498;2023-02-12T01:53:30;98647.31;;;-2.73;78.06
65546;BME280;52177;55.968;37.498;2023-02-12T01:54:05;98658.22;;;-2.79;78.15
65546;BME280;52177;55.968;37.498;2023-02-12T01:54:37;98654.88;;;-2.81;78.21
65546;BME280;52177;55.968;37.498;2023-02-12T01:55:09;98648.84;;;-2.82;78.50
65546;BME280;52177;55.968;37.498;2023-02-12T01:55:41;98661.19;;;-2.84;78.42
65546;BME280;52177;55.968;37.498;2023-02-12T01:56:12;98659.41;;;-2.83;78.68
65546;BME280;52177;55.968;37.498;2023-02-12T01:56:43;98649.91;;;-2.84;78.74
65546;BME280;52177;55.968;37.498;2023-02-12T01:57:15;98652.78;;;-2.87;78.91
65546;BME280;52177;55.968;37.498;2023-02-12T01:57:47;98659.78;;;-2.88;79.08
65546;BME280;52177;55.968;37.498;2023-02-12T01:58:18;98663.91;;;-2.85;79.29
65546;BME280;52177;55.968;37.498;2023-02-12T01:58:50;98661.78;;;-2.80;79.13
65546;BME280;52177;55.968;37.498;2023-02-12T01:59:22;98669.72;;;-2.82;79.05
65546;BME280;52177;55.968;37.498;2023-02-12T01:59:55;98659.53;;;-2.85;78.97
65546;BME280;52177;55.968;37.498;2023-02-12T02:00:27;98664.84;;;-2.86;79.11
65546;BME280;52177;55.968;37.498;2023-02-12T02:00:59;98660.69;;;-2.89;79.04
65546;BME280;52177;55.968;37.498;2023-02-12T02:01:32;98669.34;;;-2.88;79.12
65546;BME280;52177;55.968;37.498;2023-02-12T02:02:03;98665.81;;;-2.87;79.07
65546;BME280;52177;55.968;37.498;2023-02-12T02:02:36;98666.63;;;-2.87;79.07
65546;BME280;52177;55.968;37.498;2023-02-12T02:03:08;98664.28;;;-2.79;79.13
65546;BME280;52177;55.968;37.498;2023-02-12T02:03:39;98657.03;;;-2.64;78.24
65546;BME280;52177;55.968;37.498;2023-02-12T02:04:16;98677.06;;;-2.76;78.09
65546;BME280;52177;55.968;37.498;2023-02-12T02:04:54;98670.53;;;-2.81;78.14
65546;BME280;52177;55.968;37.498;2023-02-12T02:06:18;98667.25;;;-2.83;78.29
65546;BME280;52177;55.968;37.498;2023-02-12T02:06:58;98680.28;;;-2.83;78.40
65546;BME280;52177;55.968;37.498;2023-02-12T02:07:30;98683.09;;;-2.86;78.50
65546;BME280;52177;55.968;37.498;2023-02-12T02:08:01;98676.25;;;-2.87;78.56
65546;BME280;52177;55.968;37.498;2023-02-12T02:08:32;98685.00;;;-2.88;78.70
65546;BME280;52177;55.968;37.498;2023-02-12T02:09:03;98679.91;;;-2.90;78.73
65546;BME280;52177;55.968;37.498;2023-02-12T02:09:35;98681.56;;;-2.89;78.65
65546;BME280;52177;55.968;37.498;2023-02-12T02:10:07;98684.06;;;-2.87;78.78
65546;BME280;52177;55.968;37.498;2023-02-12T02:10:38;98678.13;;;-2.89;78.59
65546;BME280;52177;55.968;37.498;2023-02-12T02:11:09;98698.16;;;-2.90;78.68
65546;BME280;52177;55.968;37.498;2023-02-12T02:11:58;98683.34;;;-2.89;78.94
65546;BME280;52177;55.968;37.498;2023-02-12T02:12:47;98686.88;;;-2.90;78.86
65546;BME280;52177;55.968;37.498;2023-02-12T02:13:36;98696.38;;;-2.89;78.80
65546;BME280;52177;55.968;37.498;2023-02-12T02:14:25;98692.81;;;-2.88;78.85
65546;BME280;52177;55.968;37.498;2023-02-12T02:15:02;98698.88;;;-2.88;78.83
65546;BME280;52177;55.968;37.498;2023-02-12T02:15:35;98692.72;;;-2.87;78.63
65546;BME280;52177;55.968;37.498;2023-02-12T02:16:20;98698.88;;;-2.77;78.04
65546;BME280;52177;55.968;37.498;2023-02-12T02:17:57;98709.44;;;-2.78;77.67
65546;BME280;52177;55.968;37.498;2023-02-12T02:18:52;98693.19;;;-2.82;77.70
65546;BME280;52177;55.968;37.498;2023-02-12T02:21:55;98711.56;;;-2.94;77.58
65546;BME280;52177;55.968;37.498;2023-02-12T02:24:30;98720.19;;;-2.94;77.88
65546;BME280;52177;55.968;37.498;2023-02-12T02:27:19;98726.84;;;-2.90;77.79
65546;BME280;52177;55.968;37.498;2023-02-12T02:30:39;98731.09;;;-2.89;77.55
65546;BME280;52177;55.968;37.498;2023-02-12T02:32:17;98744.25;;;-3.02;77.93
65546;BME280;52177;55.968;37.498;2023-02-12T02:33:10;98744.25;;;-3.02;78.24
65546;BME280;52177;55.968;37.498;2023-02-12T02:34:32;98742.19;;;-3.09;78.44
65546;BME280;52177;55.968;37.498;2023-02-12T02:34:56;98738.50;;;-3.07;78.74
65546;BME280;52177;55.968;37.498;2023-02-12T02:35:43;98756.06;;;-3.09;78.47
65546;BME280;52177;55.968;37.498;2023-02-12T02:37:31;98770.03;;;-3.10;78.54
65546;BME280;52177;55.968;37.498;2023-02-12T02:38:19;98761.28;;;-3.09;78.70
65546;BME280;52177;55.968;37.498;2023-02-12T02:38:55;98762.84;;;-3.06;78.51
65546;BME280;52177;55.968;37.498;2023-02-12T02:39:38;98771.72;;;-3.09;78.73
65546;BME280;52177;55.968;37.498;2023-02-12T02:40:20;98774.53;;;-3.12;78.70
65546;BME280;52177;55.968;37.498;2023-02-12T02:41:04;98774.66;;;-3.13;78.72
65546;BME280;52177;55.968;37.498;2023-02-12T02:42:31;98775.16;;;-3.08;79.01
65546;BME280;52177;55.968;37.498;2023-02-12T02:43:08;98777.38;;;-3.15;78.94
65546;BME280;52177;55.968;37.498;2023-02-12T02:43:49;98787.16;;;-3.19;79.16
65546;BME280;52177;55.968;37.498;2023-02-12T02:44:31;98776.53;;;-3.15;79.09
65546;BME280;52177;55.968;37.498;2023-02-12T02:45:11;98779.16;;;-3.15;79.03
65546;BME280;52177;55.968;37.498;2023-02-12T02:45:46;98786.72;;;-3.12;78.97
65546;BME280;52177;55.968;37.498;2023-02-12T02:46:35;98785.91;;;-3.13;79.20
65546;BME280;52177;55.968;37.498;2023-02-12T02:47:13;98791.72;;;-3.09;78.88
65546;BME280;52177;55.968;37.498;2023-02-12T02:47:51;98789.84;;;-3.07;78.78
65546;BME280;52177;55.968;37.498;2023-02-12T02:48:31;98784.19;;;-3.01;78.07
65546;BME280;52177;55.968;37.498;2023-02-12T02:49:09;98788.66;;;-3.03;78.22
65546;BME280;52177;55.968;37.498;2023-02-12T02:49:58;98791.38;;;-3.05;78.33
65546;BME280;52177;55.968;37.498;2023-02-12T02:50:34;98806.44;;;-3.08;78.61
65546;BME280;52177;55.968;37.498;2023-02-12T02:51:14;98788.44;;;-3.00;78.33
65546;BME280;52177;55.968;37.498;2023-02-12T02:51:49;98797.31;;;-3.03;78.18
65546;BME280;52177;55.968;37.498;2023-02-12T02:52:35;98798.28;;;-3.04;78.20
65546;BME280;52177;55.968;37.498;2023-02-12T02:53:11;98802.03;;;-3.08;78.11
65546;BME280;52177;55.968;37.498;2023-02-12T02:53:47;98805.59;;;-3.09;78.38
65546;BME280;52177;55.968;37.498;2023-02-12T02:54:31;98809.13;;;-3.10;78.49
65546;BME280;52177;55.968;37.498;2023-02-12T02:55:06;98804.88;;;-3.11;78.61
65546;BME280;52177;55.968;37.498;2023-02-12T02:55:50;98802.38;;;-3.12;78.51
65546;BME280;52177;55.968;37.498;2023-02-12T02:56:23;98823.34;;;-3.14;78.48
65546;BME280;52177;55.968;37.498;2023-02-12T02:57:06;98810.28;;;-3.14;78.53
65546;BME280;52177;55.968;37.498;2023-02-12T02:57:58;98823.22;;;-3.12;78.45
65546;BME280;52177;55.968;37.498;2023-02-12T02:59:04;98807.34;;;-3.09;78.25
65546;BME280;52177;55.968;37.498;2023-02-12T02:59:41;98821.25;;;-3.09;78.31
65546;BME280;52177;55.968;37.498;2023-02-12T03:00:17;98818.50;;;-3.07;78.10
65546;BME280;52177;55.968;37.498;2023-02-12T03:01:09;98828.09;;;-3.08;78.01
65546;BME280;52177;55.968;37.498;2023-02-12T03:01:46;98831.78;;;-3.10;77.91
65546;BME280;52177;55.968;37.498;2023-02-12T03:02:21;98834.72;;;-3.15;77.87
65546;BME280;52177;55.968;37.498;2023-02-12T03:02:57;98833.75;;;-3.14;77.92
65546;BME280;52177;55.968;37.498;2023-02-12T03:03:37;98837.31;;;-3.15;77.97
65546;BME280;52177;55.968;37.498;2023-02-12T03:04:23;98831.06;;;-3.12;77.91
65546;BME280;52177;55.968;37.498;2023-02-12T03:05:21;98846.34;;;-3.08;77.84
65546;BME280;52177;55.968;37.498;2023-02-12T03:05:58;98840.31;;;-3.08;78.01
65546;BME280;52177;55.968;37.498;2023-02-12T03:06:37;98830.00;;;-3.10;77.86
65546;BME280;52177;55.968;37.498;2023-02-12T03:07:30;98834.97;;;-3.07;77.68
65546;BME280;52177;55.968;37.498;2023-02-12T03:08:07;98851.34;;;-3.05;77.52
65546;BME280;52177;55.968;37.498;2023-02-12T03:08:48;98840.31;;;-3.08;77.40
65546;BME280;52177;55.968;37.498;2023-02-12T03:09:28;98850.25;;;-3.13;77.59
65546;BME280;52177;55.968;37.498;2023-02-12T03:10:06;98845.97;;;-3.14;77.80
65546;BME280;52177;55.968;37.498;2023-02-12T03:10:45;98852.13;;;-3.15;77.82
65546;BME280;52177;55.968;37.498;2023-02-12T03:11:23;98848.91;;;-3.19;77.93
65546;BME280;52177;55.968;37.498;2023-02-12T03:11:58;98856.13;;;-3.23;77.79
65546;BME280;52177;55.968;37.498;2023-02-12T03:12:34;98854.94;;;-3.19;78.12
65546;BME280;52177;55.968;37.498;2023-02-12T03:13:12;98856.72;;;-3.19;77.99
65546;BME280;52177;55.968;37.498;2023-02-12T03:14:03;98854.34;;;-3.22;77.81